createdAt,value
2018-09-05T00:00:35.124Z,15.73
2018-09-05T00:01:35.172Z,15.63
2018-09-05T00:02:35.158Z,15.76
2018-09-05T00:03:35.107Z,15.65
2018-09-05T00:04:35.082Z,15.76
2018-09-05T00:05:35.066Z,15.78
2018-09-05T00:06:35.055Z,15.76
2018-09-05T00:07:35.064Z,15.65
2018-09-05T00:08:35.031Z,15.62
2018-09-05T00:09:35.012Z,15.67
2018-09-05T00:10:35.012Z,15.70
2018-09-05T00:11:34.996Z,15.62
2018-09-05T00:12:35.014Z,15.63
2018-09-05T00:13:34.983Z,15.60
2018-09-05T00:14:34.967Z,15.69
2018-09-05T00:15:34.958Z,15.73
2018-09-05T00:16:34.944Z,15.80
2018-09-05T00:17:34.978Z,15.69
2018-09-05T00:18:34.942Z,15.84
2018-09-05T00:19:34.913Z,15.80
2018-09-05T00:20:34.904Z,15.87
2018-09-05T00:21:34.892Z,15.92
2018-09-05T00:22:34.908Z,15.91
2018-09-05T00:23:34.900Z,15.96
2018-09-05T00:24:34.855Z,15.99
2018-09-05T00:25:34.850Z,16.00
2018-09-05T00:26:34.835Z,15.96
2018-09-05T00:27:34.825Z,15.96
2018-09-05T00:28:34.850Z,15.98
2018-09-05T00:29:34.826Z,15.96
2018-09-05T00:30:34.793Z,15.96
2018-09-05T00:31:34.774Z,15.98
2018-09-05T00:32:34.764Z,15.98
2018-09-05T00:33:34.781Z,15.96
2018-09-05T00:34:34.752Z,15.92
2018-09-05T00:35:34.727Z,15.99
2018-09-05T00:36:34.724Z,15.92
2018-09-05T00:37:34.708Z,16.02
2018-09-05T00:38:34.730Z,16.02
2018-09-05T00:39:34.688Z,15.94
2018-09-05T00:40:34.676Z,15.98
2018-09-05T00:41:34.666Z,15.98
2018-09-05T00:42:34.649Z,16.05
2018-09-05T00:43:34.672Z,15.96
2018-09-05T00:44:34.654Z,15.94
2018-09-05T00:45:34.613Z,15.98
2018-09-05T00:46:34.605Z,15.92
2018-09-05T00:47:34.585Z,15.92
2018-09-05T00:48:34.581Z,15.94
2018-09-05T00:49:34.603Z,15.87
2018-09-05T00:50:34.549Z,15.96
2018-09-05T00:51:34.545Z,15.91
2018-09-05T00:52:34.536Z,15.87
2018-09-05T00:53:34.520Z,15.84
2018-09-05T00:54:34.542Z,15.81
2018-09-05T00:55:34.540Z,15.90
2018-09-05T00:56:34.512Z,15.84
2018-09-05T00:57:34.470Z,15.83
2018-09-05T00:58:34.469Z,15.62
2018-09-05T00:59:34.481Z,15.67
2018-09-05T01:00:34.438Z,15.65
2018-09-05T01:01:34.428Z,15.67
2018-09-05T01:02:34.411Z,15.65
2018-09-05T01:03:34.416Z,15.66
2018-09-05T01:04:34.426Z,15.63
2018-09-05T01:05:34.393Z,15.60
2018-09-05T01:06:34.400Z,15.66
2018-09-05T01:07:34.366Z,15.65
2018-09-05T01:08:34.357Z,15.67
2018-09-05T01:09:34.350Z,15.60
2018-09-05T01:10:34.326Z,15.63
2018-09-05T01:11:34.342Z,15.55
2018-09-05T01:12:34.305Z,15.57
2018-09-05T01:13:34.300Z,15.55
2018-09-05T01:14:34.284Z,15.51
2018-09-05T01:15:34.312Z,15.55
2018-09-05T01:16:34.291Z,15.55
2018-09-05T01:17:34.259Z,15.57
2018-09-05T01:18:34.254Z,15.52
2018-09-05T01:19:34.238Z,15.48
2018-09-05T01:20:34.231Z,15.48
2018-09-05T01:21:34.243Z,15.50
2018-09-05T01:22:34.198Z,15.39
2018-09-05T01:23:34.258Z,15.39
2018-09-05T01:24:34.181Z,15.41
2018-09-05T01:25:34.176Z,15.37
2018-09-05T01:26:34.195Z,15.37
2018-09-05T01:27:34.151Z,15.33
2018-09-05T01:28:34.143Z,15.29
2018-09-05T01:29:34.122Z,15.27
2018-09-05T01:30:34.121Z,15.30
2018-09-05T01:31:34.141Z,15.33
2018-09-05T01:32:34.101Z,15.29
2018-09-05T01:33:34.067Z,15.25
2018-09-05T01:34:34.058Z,15.26
2018-09-05T01:35:34.055Z,15.22
2018-09-05T01:36:34.082Z,15.29
2018-09-05T01:37:34.039Z,15.23
2018-09-05T01:38:34.018Z,15.19
2018-09-05T01:39:34.002Z,15.18
2018-09-05T01:40:33.998Z,15.25
2018-09-05T01:41:34.018Z,15.25
2018-09-05T01:42:33.970Z,15.14
2018-09-05T01:43:33.968Z,15.14
2018-09-05T01:44:33.976Z,15.12
2018-09-05T01:45:33.939Z,15.14
2018-09-05T01:46:33.926Z,15.14
2018-09-05T01:47:33.926Z,15.04
2018-09-05T01:48:33.906Z,15.07
2018-09-05T01:49:33.936Z,15.05
2018-09-05T01:50:33.898Z,14.99
2018-09-05T01:51:33.882Z,14.93
2018-09-05T01:52:33.872Z,14.93
2018-09-05T01:53:33.858Z,14.99
2018-09-05T01:54:33.897Z,14.96
2018-09-05T01:55:33.844Z,14.92
2018-09-05T01:56:33.824Z,14.94
2018-09-05T01:57:33.822Z,14.93
2018-09-05T01:58:33.807Z,14.97
2018-09-05T01:59:33.818Z,14.96
2018-09-05T02:00:33.805Z,14.93
2018-09-05T02:01:33.785Z,14.94
2018-09-05T02:02:33.761Z,14.93
2018-09-05T02:03:33.746Z,14.94
2018-09-05T02:04:33.740Z,14.96
2018-09-05T02:05:33.755Z,14.89
2018-09-05T02:06:33.711Z,14.97
2018-09-05T02:07:33.711Z,14.94
2018-09-05T02:08:33.854Z,14.94
2018-09-05T02:09:33.680Z,15.05
2018-09-05T02:10:33.709Z,14.92
2018-09-05T02:11:33.693Z,14.90
2018-09-05T02:12:33.659Z,14.90
2018-09-05T02:13:33.637Z,14.94
2018-09-05T02:14:33.627Z,14.92
2018-09-05T02:15:33.619Z,14.96
2018-09-05T02:16:33.630Z,14.90
2018-09-05T02:17:33.597Z,14.99
2018-09-05T02:18:33.578Z,14.90
2018-09-05T02:19:33.572Z,14.92
2018-09-05T02:20:33.584Z,14.93
2018-09-05T02:21:33.540Z,14.93
2018-09-05T02:22:33.558Z,14.93
2018-09-05T02:23:33.518Z,14.89
2018-09-05T02:24:33.509Z,14.93
2018-09-05T02:25:33.530Z,14.93
2018-09-05T02:26:33.479Z,14.90
2018-09-05T02:27:33.475Z,14.86
2018-09-05T02:28:33.455Z,14.85
2018-09-05T02:29:33.459Z,14.74
2018-09-05T02:30:33.481Z,14.87
2018-09-05T02:31:33.427Z,14.93
2018-09-05T02:32:33.418Z,14.96
2018-09-05T02:33:33.406Z,14.92
2018-09-05T02:34:33.396Z,14.92
2018-09-05T02:35:33.437Z,14.90
2018-09-05T02:36:33.375Z,14.90
2018-09-05T02:37:33.359Z,14.96
2018-09-05T02:38:33.352Z,14.97
2018-09-05T02:39:33.336Z,15.02
2018-09-05T02:40:33.440Z,15.00
2018-09-05T02:41:33.319Z,15.04
2018-09-05T02:42:33.305Z,14.99
2018-09-05T02:43:33.292Z,15.00
2018-09-05T02:44:33.285Z,15.04
2018-09-05T02:45:33.308Z,14.97
2018-09-05T02:46:33.260Z,15.10
2018-09-05T02:47:33.258Z,15.04
2018-09-05T02:48:33.234Z,15.14
2018-09-05T02:49:33.229Z,15.10
2018-09-05T02:50:33.242Z,15.08
2018-09-05T02:51:33.250Z,15.04
2018-09-05T02:52:33.192Z,15.04
2018-09-05T02:53:33.194Z,15.14
2018-09-05T02:54:33.179Z,15.17
2018-09-05T02:55:33.168Z,15.19
2018-09-05T02:56:33.187Z,15.14
2018-09-05T02:57:33.660Z,15.15
2018-09-05T02:58:33.135Z,15.15
2018-09-05T02:59:33.121Z,15.14
2018-09-05T03:00:33.112Z,15.22
2018-09-05T03:01:33.101Z,15.14
2018-09-05T03:02:33.130Z,15.18
2018-09-05T03:03:33.079Z,15.17
2018-09-05T03:04:33.069Z,15.14
2018-09-05T03:05:33.057Z,15.12
2018-09-05T03:06:33.045Z,15.23
2018-09-05T03:07:33.076Z,15.30
2018-09-05T03:08:33.029Z,15.17
2018-09-05T03:09:33.010Z,15.23
2018-09-05T03:10:33.004Z,15.19
2018-09-05T03:11:32.994Z,15.27
2018-09-05T03:12:33.022Z,15.23
2018-09-05T03:13:32.974Z,15.25
2018-09-05T03:14:32.963Z,15.19
2018-09-05T03:15:32.985Z,15.12
2018-09-05T03:16:32.939Z,15.14
2018-09-05T03:17:32.964Z,15.14
2018-09-05T03:18:32.919Z,15.18
2018-09-05T03:19:32.902Z,15.12
2018-09-05T03:20:32.884Z,15.15
2018-09-05T03:21:32.883Z,15.22
2018-09-05T03:22:32.897Z,15.25
2018-09-05T03:23:32.917Z,15.26
2018-09-05T03:24:32.844Z,15.23
2018-09-05T03:25:32.827Z,15.35
2018-09-05T03:26:32.816Z,15.30
2018-09-05T03:27:32.804Z,15.33
2018-09-05T03:28:32.824Z,15.37
2018-09-05T03:29:32.783Z,15.37
2018-09-05T03:30:32.767Z,15.44
2018-09-05T03:31:32.763Z,15.39
2018-09-05T03:32:32.901Z,15.51
2018-09-05T03:33:32.768Z,15.52
2018-09-05T03:34:32.729Z,15.55
2018-09-05T03:35:32.713Z,15.54
2018-09-05T03:36:32.710Z,15.55
2018-09-05T03:37:32.688Z,15.62
2018-09-05T03:38:32.744Z,15.66
2018-09-05T03:39:32.667Z,15.59
2018-09-05T03:40:32.661Z,15.65
2018-09-05T03:41:32.655Z,15.60
2018-09-05T03:42:32.641Z,15.63
2018-09-05T03:43:32.674Z,15.67
2018-09-05T03:44:32.650Z,15.57
2018-09-05T03:45:32.618Z,15.67
2018-09-05T03:46:32.610Z,15.63
2018-09-05T03:47:32.582Z,15.65
2018-09-05T03:48:32.624Z,15.60
2018-09-05T03:49:32.575Z,15.65
2018-09-05T03:50:32.554Z,15.57
2018-09-05T03:51:32.546Z,15.59
2018-09-05T03:52:32.532Z,15.60
2018-09-05T03:53:32.590Z,15.57
2018-09-05T03:54:32.506Z,15.67
2018-09-05T03:55:32.504Z,15.60
2018-09-05T03:56:32.484Z,15.63
2018-09-05T03:57:32.476Z,15.60
2018-09-05T03:58:32.493Z,15.69
2018-09-05T03:59:32.485Z,15.59
2018-09-05T04:00:32.440Z,15.62
2018-09-05T04:01:32.420Z,15.57
2018-09-05T04:02:32.413Z,15.59
2018-09-05T04:03:32.408Z,15.52
2018-09-05T04:04:32.426Z,15.55
2018-09-05T04:05:32.385Z,15.52
2018-09-05T04:06:32.374Z,15.55
2018-09-05T04:07:32.353Z,15.51
2018-09-05T04:08:32.348Z,15.52
2018-09-05T04:09:32.362Z,15.59
2018-09-05T04:10:32.328Z,15.57
2018-09-05T04:11:32.313Z,15.62
2018-09-05T04:12:32.307Z,15.57
2018-09-05T04:13:32.289Z,15.67
2018-09-05T04:14:32.326Z,15.59
2018-09-05T04:15:32.267Z,15.57
2018-09-05T04:16:32.262Z,15.59
2018-09-05T04:17:32.250Z,15.65
2018-09-05T04:18:32.244Z,15.65
2018-09-05T04:19:32.261Z,15.63
2018-09-05T04:20:32.214Z,15.67
2018-09-05T04:21:32.198Z,15.67
2018-09-05T04:22:32.189Z,15.65
2018-09-05T04:23:32.180Z,15.72
2018-09-05T04:24:32.210Z,15.72
2018-09-05T04:25:32.164Z,15.63
2018-09-05T04:26:32.142Z,15.70
2018-09-05T04:27:32.166Z,15.65
2018-09-05T04:28:32.121Z,15.69
2018-09-05T04:29:32.236Z,15.63
2018-09-05T04:30:32.114Z,15.72
2018-09-05T04:31:32.100Z,15.63
2018-09-05T04:32:32.094Z,15.63
2018-09-05T04:33:32.108Z,15.65
2018-09-05T04:34:32.113Z,15.60
2018-09-05T04:35:32.058Z,15.66
2018-09-05T04:36:32.044Z,15.60
2018-09-05T04:37:32.037Z,15.66
2018-09-05T04:38:32.022Z,15.67
2018-09-05T04:39:32.042Z,15.67
2018-09-05T04:40:32.006Z,15.67
2018-09-05T04:41:32.014Z,15.66
2018-09-05T04:42:31.980Z,15.75
2018-09-05T04:43:31.968Z,15.66
2018-09-05T04:44:31.958Z,15.66
2018-09-05T04:45:31.978Z,15.63
2018-09-05T04:46:31.930Z,15.66
2018-09-05T04:47:31.958Z,15.67
2018-09-05T04:48:31.911Z,15.63
2018-09-05T04:49:31.905Z,15.67
2018-09-05T04:50:31.886Z,15.66
2018-09-05T04:51:31.882Z,15.63
2018-09-05T04:52:31.916Z,15.65
2018-09-05T04:53:31.860Z,15.67
2018-09-05T04:54:31.860Z,15.63
2018-09-05T04:55:31.830Z,15.62
2018-09-05T04:56:31.819Z,15.67
2018-09-05T04:57:31.839Z,15.70
2018-09-05T04:58:31.867Z,15.63
2018-09-05T04:59:31.903Z,15.69
2018-09-05T05:00:31.961Z,15.59
2018-09-05T05:01:32.132Z,15.76
2018-09-05T05:02:33.140Z,15.62
2018-09-05T05:03:31.901Z,15.60
2018-09-05T05:04:32.027Z,15.70
2018-09-05T05:05:32.152Z,15.65
2018-09-05T05:06:31.920Z,15.73
2018-09-05T05:07:31.908Z,15.70
2018-09-05T05:08:32.233Z,15.72
2018-09-05T05:09:32.261Z,15.65
2018-09-05T05:10:31.886Z,15.81
2018-09-05T05:11:31.654Z,15.83
2018-09-05T05:12:31.685Z,15.75
2018-09-05T05:13:32.660Z,15.83
2018-09-05T05:14:32.630Z,15.75
2018-09-05T05:15:32.344Z,15.73
2018-09-05T05:16:31.592Z,15.76
2018-09-05T05:17:31.634Z,15.75
2018-09-05T05:18:31.572Z,15.76
2018-09-05T05:19:31.558Z,15.88
2018-09-05T05:20:31.590Z,15.88
2018-09-05T05:21:31.552Z,15.94
2018-09-05T05:22:31.582Z,15.92
2018-09-05T05:23:31.532Z,15.94
2018-09-05T05:24:31.508Z,15.91
2018-09-05T05:25:31.490Z,16.03
2018-09-05T05:26:31.481Z,16.03
2018-09-05T05:27:31.503Z,16.08
2018-09-05T05:28:31.463Z,16.09
2018-09-05T05:29:31.444Z,16.13
2018-09-05T05:30:31.450Z,16.21
2018-09-05T05:31:31.414Z,16.24
2018-09-05T05:32:31.534Z,16.21
2018-09-05T05:33:31.406Z,16.37
2018-09-05T05:34:31.392Z,16.46
2018-09-05T05:35:31.388Z,16.43
2018-09-05T05:36:31.386Z,16.46
2018-09-05T05:37:31.407Z,16.40
2018-09-05T05:38:31.351Z,16.46
2018-09-05T05:39:31.339Z,16.54
2018-09-05T05:40:31.334Z,16.57
2018-09-05T05:41:31.324Z,16.55
2018-09-05T05:42:31.342Z,16.59
2018-09-05T05:43:31.292Z,16.58
2018-09-05T05:44:31.288Z,16.55
2018-09-05T05:45:31.274Z,16.55
2018-09-05T05:46:31.261Z,16.62
2018-09-05T05:47:31.276Z,16.61
2018-09-05T05:48:31.231Z,16.59
2018-09-05T05:49:31.226Z,16.58
2018-09-05T05:50:31.216Z,16.58
2018-09-05T05:51:31.197Z,16.61
2018-09-05T05:52:31.220Z,16.65
2018-09-05T05:53:31.183Z,16.72
2018-09-05T05:54:31.168Z,16.83
2018-09-05T05:55:31.162Z,17.07
2018-09-05T05:56:31.144Z,17.34
2018-09-05T05:57:31.165Z,17.71
2018-09-05T05:58:31.128Z,18.06
2018-09-05T05:59:31.136Z,18.27
2018-09-05T06:00:31.106Z,18.45
2018-09-05T06:01:31.169Z,18.81
2018-09-05T06:02:31.106Z,19.07
2018-09-05T06:03:32.063Z,19.23
2018-09-05T06:04:31.060Z,19.41
2018-09-05T06:05:31.034Z,19.59
2018-09-05T06:06:31.054Z,19.66
2018-09-05T06:07:31.058Z,19.84
2018-09-05T06:08:31.001Z,19.94
2018-09-05T06:09:30.996Z,20.08
2018-09-05T06:10:30.978Z,20.11
2018-09-05T06:11:30.966Z,20.07
2018-09-05T06:12:31.004Z,20.29
2018-09-05T06:13:30.950Z,20.42
2018-09-05T06:14:30.934Z,20.48
2018-09-05T06:15:30.987Z,20.37
2018-09-05T06:16:30.912Z,20.44
2018-09-05T06:17:30.958Z,20.50
2018-09-05T06:18:30.896Z,20.34
2018-09-05T06:19:30.888Z,20.66
2018-09-05T06:20:30.878Z,20.71
2018-09-05T06:21:30.862Z,20.89
2018-09-05T06:22:30.882Z,21.14
2018-09-05T06:23:30.872Z,21.22
2018-09-05T06:24:30.828Z,21.47
2018-09-05T06:25:30.812Z,21.51
2018-09-05T06:26:30.798Z,21.63
2018-09-05T06:27:30.792Z,21.60
2018-09-05T06:28:30.801Z,21.78
2018-09-05T06:29:30.772Z,21.88
2018-09-05T06:30:30.877Z,21.81
2018-09-05T06:31:30.750Z,21.83
2018-09-05T06:32:30.737Z,21.63
2018-09-05T06:33:30.752Z,21.37
2018-09-05T06:34:30.714Z,21.03
2018-09-05T06:35:30.722Z,20.70
2018-09-05T06:36:30.692Z,20.40
2018-09-05T06:37:30.685Z,20.42
2018-09-05T06:38:30.704Z,20.66
2018-09-05T06:39:30.671Z,20.82
2018-09-05T06:40:30.709Z,21.19
2018-09-05T06:41:30.644Z,21.40
2018-09-05T06:42:30.633Z,21.59
2018-09-05T06:43:30.641Z,21.94
2018-09-05T06:44:30.628Z,22.14
2018-09-05T06:45:30.709Z,22.25
2018-09-05T06:46:30.589Z,22.47
2018-09-05T06:47:30.580Z,22.51
2018-09-05T06:48:30.564Z,22.68
2018-09-05T06:49:30.558Z,22.77
2018-09-05T06:50:30.572Z,22.88
2018-09-05T06:51:30.612Z,23.04
2018-09-05T06:52:30.523Z,23.06
2018-09-05T06:53:30.513Z,23.11
2018-09-05T06:54:30.518Z,23.10
2018-09-05T06:55:30.523Z,23.26
2018-09-05T06:56:30.476Z,23.26
2018-09-05T06:57:30.463Z,23.14
2018-09-05T06:58:30.453Z,22.83
2018-09-05T06:59:30.456Z,22.30
2018-09-05T07:00:30.465Z,22.44
2018-09-05T07:01:30.450Z,22.26
2018-09-05T07:02:30.416Z,22.10
2018-09-05T07:03:30.443Z,21.56
2018-09-05T07:04:30.389Z,21.41
2018-09-05T07:05:30.378Z,21.22
2018-09-05T07:06:30.406Z,21.03
2018-09-05T07:07:30.349Z,21.26
2018-09-05T07:08:30.350Z,21.20
2018-09-05T07:09:30.318Z,21.37
2018-09-05T07:10:30.308Z,21.51
2018-09-05T07:11:30.348Z,21.91
2018-09-05T07:12:30.322Z,21.81
2018-09-05T07:13:30.282Z,21.53
2018-09-05T07:14:30.365Z,21.41
2018-09-05T07:15:30.260Z,21.38
2018-09-05T07:16:30.250Z,21.26
2018-09-05T07:17:30.317Z,21.41
2018-09-05T07:18:30.224Z,21.43
2018-09-05T07:19:30.216Z,21.23
2018-09-05T07:20:30.234Z,21.14
2018-09-05T07:21:30.229Z,21.35
2018-09-05T07:22:30.212Z,21.07
2018-09-05T07:23:30.173Z,20.96
2018-09-05T07:24:30.157Z,20.78
2018-09-05T07:25:30.149Z,20.53
2018-09-05T07:26:30.152Z,20.36
2018-09-05T07:27:30.167Z,20.27
2018-09-05T07:28:30.112Z,20.29
2018-09-05T07:29:30.103Z,20.19
2018-09-05T07:30:30.177Z,20.17
2018-09-05T07:31:30.081Z,20.10
2018-09-05T07:32:30.093Z,20.03
2018-09-05T07:33:30.057Z,20.03
2018-09-05T07:34:30.055Z,20.02
2018-09-05T07:35:30.042Z,19.96
2018-09-05T07:36:30.028Z,19.97
2018-09-05T07:37:30.039Z,19.99
2018-09-05T07:38:30.009Z,19.97
2018-09-05T07:39:29.995Z,20.03
2018-09-05T07:40:29.990Z,20.10
2018-09-05T07:41:29.986Z,20.07
2018-09-05T07:42:30.000Z,20.17
2018-09-05T07:43:29.957Z,20.17
2018-09-05T07:44:29.945Z,20.26
2018-09-05T07:45:29.942Z,20.19
2018-09-05T07:46:29.929Z,20.21
2018-09-05T07:47:29.949Z,20.21
2018-09-05T07:48:29.950Z,20.22
2018-09-05T07:49:29.927Z,20.33
2018-09-05T07:50:29.925Z,20.36
2018-09-05T07:51:29.861Z,20.39
2018-09-05T07:52:29.862Z,20.55
2018-09-05T07:53:29.900Z,20.63
2018-09-05T07:54:29.831Z,20.93
2018-09-05T07:55:29.819Z,20.93
2018-09-05T07:56:29.807Z,21.04
2018-09-05T07:57:29.803Z,20.96
2018-09-05T07:58:29.838Z,21.01
2018-09-05T07:59:29.773Z,20.88
2018-09-05T08:00:29.763Z,20.88
2018-09-05T08:01:29.778Z,20.82
2018-09-05T08:02:29.748Z,20.88
2018-09-05T08:03:29.738Z,21.14
2018-09-05T08:04:29.761Z,21.26
2018-09-05T08:05:29.709Z,21.37
2018-09-05T08:06:29.701Z,21.26
2018-09-05T08:07:29.678Z,21.30
2018-09-05T08:08:29.673Z,21.23
2018-09-05T08:09:29.697Z,21.17
2018-09-05T08:10:29.654Z,21.20
2018-09-05T08:11:29.639Z,21.15
2018-09-05T08:12:29.625Z,21.20
2018-09-05T08:13:29.622Z,21.22
2018-09-05T08:14:29.660Z,21.28
2018-09-05T08:15:29.616Z,21.43
2018-09-05T08:16:29.595Z,21.45
2018-09-05T08:17:29.583Z,21.41
2018-09-05T08:18:29.603Z,21.51
2018-09-05T08:19:29.562Z,21.63
2018-09-05T08:20:29.548Z,21.60
2018-09-05T08:21:29.530Z,21.45
2018-09-05T08:22:29.563Z,21.50
2018-09-05T08:23:29.526Z,21.47
2018-09-05T08:24:29.511Z,21.53
2018-09-05T08:25:29.529Z,21.44
2018-09-05T08:26:29.475Z,21.50
2018-09-05T08:27:29.471Z,21.56
2018-09-05T08:28:29.484Z,21.66
2018-09-05T08:29:29.446Z,21.60
2018-09-05T08:30:29.450Z,21.81
2018-09-05T08:31:29.423Z,21.97
2018-09-05T08:32:29.417Z,21.89
2018-09-05T08:33:29.429Z,21.92
2018-09-05T08:34:29.387Z,21.96
2018-09-05T08:35:29.724Z,21.91
2018-09-05T08:36:29.471Z,21.89
2018-09-05T08:37:29.617Z,21.85
2018-09-05T08:38:29.610Z,21.88
2018-09-05T08:39:29.335Z,21.81
2018-09-05T08:40:29.356Z,21.99
2018-09-05T08:41:29.419Z,22.10
2018-09-05T08:42:29.518Z,22.41
2018-09-05T08:43:29.341Z,22.58
2018-09-05T08:44:29.451Z,22.63
2018-09-05T08:45:29.662Z,22.55
2018-09-05T08:46:29.278Z,22.46
2018-09-05T08:47:29.428Z,22.40
2018-09-05T08:48:29.329Z,22.31
2018-09-05T08:49:29.215Z,22.22
2018-09-05T08:50:29.202Z,22.15
2018-09-05T08:51:29.186Z,22.06
2018-09-05T08:52:29.233Z,22.08
2018-09-05T08:53:29.169Z,22.10
2018-09-05T08:54:29.157Z,22.28
2018-09-05T08:55:29.234Z,22.55
2018-09-05T08:56:29.161Z,22.71
2018-09-05T08:57:29.167Z,22.55
2018-09-05T08:58:29.115Z,22.53
2018-09-05T08:59:29.101Z,22.47
2018-09-05T09:00:29.087Z,22.33
2018-09-05T09:01:29.084Z,22.31
2018-09-05T09:02:29.097Z,22.28
2018-09-05T09:03:29.148Z,22.22
2018-09-05T09:04:29.086Z,22.33
2018-09-05T09:05:29.035Z,22.46
2018-09-05T09:06:29.031Z,22.49
2018-09-05T09:07:29.011Z,22.41
2018-09-05T09:08:29.043Z,22.31
2018-09-05T09:09:28.981Z,22.08
2018-09-05T09:10:28.984Z,21.97
2018-09-05T09:11:29.038Z,21.78
2018-09-05T09:12:28.951Z,22.01
2018-09-05T09:13:28.993Z,23.92
2018-09-05T09:14:28.940Z,25.73
2018-09-05T09:15:28.933Z,26.97
2018-09-05T09:16:28.904Z,27.79
2018-09-05T09:17:28.918Z,28.68
2018-09-05T09:18:28.944Z,29.27
2018-09-05T09:19:28.886Z,28.37
2018-09-05T09:20:28.876Z,28.59
2018-09-05T09:21:28.864Z,27.82
2018-09-05T09:22:28.846Z,26.71
2018-09-05T09:23:28.879Z,26.70
2018-09-05T09:24:28.829Z,28.16
2018-09-05T09:25:28.820Z,28.94
2018-09-05T09:26:28.846Z,29.59
2018-09-05T09:27:28.802Z,30.08
2018-09-05T09:28:28.796Z,30.71
2018-09-05T09:29:28.770Z,31.30
2018-09-05T09:30:28.794Z,30.43
2018-09-05T09:31:28.754Z,29.98
2018-09-05T09:32:28.788Z,31.15
2018-09-05T09:33:28.738Z,32.04
2018-09-05T09:34:28.716Z,32.56
2018-09-05T09:35:28.827Z,31.51
2018-09-05T09:36:28.699Z,31.69
2018-09-05T09:37:28.730Z,32.00
2018-09-05T09:38:28.682Z,32.15
2018-09-05T09:39:28.664Z,32.57
2018-09-05T09:40:28.700Z,32.68
2018-09-05T09:41:28.659Z,32.83
2018-09-05T09:42:28.635Z,33.01
2018-09-05T09:43:28.632Z,33.35
2018-09-05T09:44:28.618Z,33.65
2018-09-05T09:45:28.641Z,33.95
2018-09-05T09:46:28.653Z,34.37
2018-09-05T09:47:28.595Z,34.21
2018-09-05T09:48:28.581Z,34.06
2018-09-05T09:49:28.551Z,33.94
2018-09-05T09:50:28.548Z,34.09
2018-09-05T09:51:28.566Z,34.24
2018-09-05T09:52:28.528Z,34.09
2018-09-05T09:53:28.517Z,33.57
2018-09-05T09:54:28.509Z,33.67
2018-09-05T09:55:28.501Z,33.94
2018-09-05T09:56:28.546Z,34.06
2018-09-05T09:57:28.506Z,34.33
2018-09-05T09:58:28.466Z,34.78
2018-09-05T09:59:28.453Z,34.69
2018-09-05T10:00:28.462Z,34.65
2018-09-05T10:01:28.435Z,34.71
2018-09-05T10:02:28.462Z,34.51
2018-09-05T10:03:28.497Z,34.93
2018-09-05T10:04:28.413Z,35.18
2018-09-05T10:05:28.392Z,35.05
2018-09-05T10:06:28.375Z,35.08
2018-09-05T10:07:28.409Z,35.37
2018-09-05T10:08:28.367Z,35.74
2018-09-05T10:09:28.354Z,36.03
2018-09-05T10:10:28.371Z,36.20
2018-09-05T10:11:28.339Z,36.48
2018-09-05T10:12:28.370Z,36.59
2018-09-05T10:13:28.314Z,36.76
2018-09-05T10:14:28.297Z,36.96
2018-09-05T10:15:28.299Z,36.92
2018-09-05T10:16:28.290Z,36.97
2018-09-05T10:17:28.314Z,36.82
2018-09-05T10:18:28.290Z,37.00
2018-09-05T10:19:28.268Z,37.04
2018-09-05T10:20:28.244Z,37.10
2018-09-05T10:21:28.248Z,37.15
2018-09-05T10:22:28.259Z,36.96
2018-09-05T10:23:28.245Z,37.07
2018-09-05T10:24:28.248Z,35.63
2018-09-05T10:25:28.230Z,35.08
2018-09-05T10:26:28.188Z,35.19
2018-09-05T10:27:28.181Z,34.73
2018-09-05T10:28:28.171Z,33.32
2018-09-05T10:29:28.204Z,31.82
2018-09-05T10:30:28.159Z,32.23
2018-09-05T10:31:28.146Z,31.57
2018-09-05T10:32:28.137Z,31.10
2018-09-05T10:33:28.118Z,30.76
2018-09-05T10:34:28.161Z,29.80
2018-09-05T10:35:28.104Z,29.25
2018-09-05T10:36:28.094Z,28.60
2018-09-05T10:37:28.078Z,28.04
2018-09-05T10:38:28.066Z,27.73
2018-09-05T10:39:28.104Z,27.40
2018-09-05T10:40:28.046Z,27.07
2018-09-05T10:41:28.040Z,26.85
2018-09-05T10:42:28.028Z,26.91
2018-09-05T10:43:28.012Z,26.70
2018-09-05T10:44:28.052Z,26.42
2018-09-05T10:45:28.001Z,26.30
2018-09-05T10:46:27.985Z,26.24
2018-09-05T10:47:27.982Z,26.27
2018-09-05T10:48:27.960Z,26.24
2018-09-05T10:49:27.992Z,26.19
2018-09-05T10:50:27.980Z,26.46
2018-09-05T10:51:27.932Z,28.09
2018-09-05T10:52:27.920Z,29.28
2018-09-05T10:53:27.906Z,30.92
2018-09-05T10:54:27.897Z,31.86
2018-09-05T10:55:28.010Z,32.63
2018-09-05T10:56:27.881Z,33.28
2018-09-05T10:57:27.865Z,33.60
2018-09-05T10:58:27.847Z,34.11
2018-09-05T10:59:27.842Z,34.41
2018-09-05T11:00:27.869Z,33.19
2018-09-05T11:01:27.816Z,32.71
2018-09-05T11:02:27.808Z,33.57
2018-09-05T11:03:27.794Z,33.69
2018-09-05T11:04:27.788Z,33.40
2018-09-05T11:05:27.814Z,31.62
2018-09-05T11:06:27.769Z,30.18
2018-09-05T11:07:27.751Z,29.39
2018-09-05T11:08:27.744Z,28.77
2018-09-05T11:09:27.736Z,28.28
2018-09-05T11:10:27.771Z,28.01
2018-09-05T11:11:27.710Z,27.48
2018-09-05T11:12:27.699Z,27.25
2018-09-05T11:13:27.699Z,26.89
2018-09-05T11:14:27.678Z,26.67
2018-09-05T11:15:27.701Z,26.19
2018-09-05T11:16:27.660Z,25.76
2018-09-05T11:17:27.655Z,25.59
2018-09-05T11:18:27.636Z,25.43
2018-09-05T11:19:27.682Z,25.16
2018-09-05T11:20:27.646Z,25.04
2018-09-05T11:21:27.612Z,25.04
2018-09-05T11:22:27.603Z,25.19
2018-09-05T11:23:27.585Z,25.31
2018-09-05T11:24:27.595Z,25.96
2018-09-05T11:25:27.584Z,28.22
2018-09-05T11:26:27.560Z,27.48
2018-09-05T11:27:27.590Z,26.91
2018-09-05T11:28:27.545Z,27.88
2018-09-05T11:29:27.528Z,27.50
2018-09-05T11:30:27.512Z,26.96
2018-09-05T11:31:27.504Z,26.53
2018-09-05T11:32:27.532Z,26.13
2018-09-05T11:33:27.484Z,25.88
2018-09-05T11:34:27.473Z,25.74
2018-09-05T11:35:27.458Z,25.51
2018-09-05T11:36:27.449Z,25.88
2018-09-05T11:37:27.476Z,26.07
2018-09-05T11:38:27.431Z,28.28
2018-09-05T11:39:27.413Z,29.99
2018-09-05T11:40:27.407Z,31.20
2018-09-05T11:41:27.392Z,32.01
2018-09-05T11:42:27.425Z,32.60
2018-09-05T11:43:27.375Z,33.00
2018-09-05T11:44:27.366Z,33.36
2018-09-05T11:45:27.365Z,33.92
2018-09-05T11:46:27.355Z,33.01
2018-09-05T11:47:27.358Z,31.47
2018-09-05T11:48:27.323Z,30.55
2018-09-05T11:49:27.353Z,29.52
2018-09-05T11:50:27.298Z,28.83
2018-09-05T11:51:27.289Z,28.37
2018-09-05T11:52:27.274Z,28.50
2018-09-05T11:53:27.278Z,30.49
2018-09-05T11:54:27.389Z,31.81
2018-09-05T11:55:27.243Z,32.78
2018-09-05T11:56:27.231Z,32.59
2018-09-05T11:57:27.218Z,31.18
2018-09-05T11:58:27.209Z,30.11
2018-09-05T11:59:27.244Z,29.27
2018-09-05T12:00:27.186Z,28.64
2018-09-05T12:01:27.175Z,28.01
2018-09-05T12:02:27.158Z,27.41
2018-09-05T12:03:27.159Z,26.96
2018-09-05T12:04:27.193Z,26.41
2018-09-05T12:05:27.135Z,26.06
2018-09-05T12:06:27.124Z,25.67
2018-09-05T12:07:27.111Z,25.33
2018-09-05T12:08:27.105Z,25.11
2018-09-05T12:09:27.135Z,24.82
2018-09-05T12:10:27.079Z,24.59
2018-09-05T12:11:27.129Z,24.51
2018-09-05T12:12:27.059Z,24.48
2018-09-05T12:13:27.052Z,24.47
2018-09-05T12:14:27.043Z,24.43
2018-09-05T12:15:27.041Z,25.67
2018-09-05T12:16:27.059Z,27.35
2018-09-05T12:17:27.017Z,27.64
2018-09-05T12:18:26.999Z,28.90
2018-09-05T12:19:26.988Z,29.94
2018-09-05T12:20:26.983Z,30.85
2018-09-05T12:21:26.991Z,31.73
2018-09-05T12:22:26.951Z,32.08
2018-09-05T12:23:26.945Z,32.48
2018-09-05T12:24:26.937Z,32.83
2018-09-05T12:25:26.925Z,32.91
2018-09-05T12:26:26.945Z,33.20
2018-09-05T12:27:26.949Z,33.50
2018-09-05T12:28:26.896Z,32.83
2018-09-05T12:29:26.879Z,30.95
2018-09-05T12:30:26.862Z,29.68
2018-09-05T12:31:26.847Z,28.78
2018-09-05T12:32:26.885Z,28.20
2018-09-05T12:33:26.831Z,27.66
2018-09-05T12:34:26.817Z,27.20
2018-09-05T12:35:26.812Z,27.13
2018-09-05T12:36:26.797Z,29.61
2018-09-05T12:37:26.828Z,31.11
2018-09-05T12:38:26.863Z,32.02
2018-09-05T12:39:26.768Z,32.64
2018-09-05T12:40:26.762Z,33.16
2018-09-05T12:41:26.740Z,33.36
2018-09-05T12:42:26.773Z,32.22
2018-09-05T12:43:26.763Z,31.08
2018-09-05T12:44:26.724Z,30.16
2018-09-05T12:45:26.709Z,29.32
2018-09-05T12:46:26.697Z,28.45
2018-09-05T12:47:26.687Z,28.10
2018-09-05T12:48:26.711Z,28.27
2018-09-05T12:49:26.668Z,30.17
2018-09-05T12:50:26.660Z,31.62
2018-09-05T12:51:26.637Z,32.35
2018-09-05T12:52:26.633Z,31.60